Norman Y. Mineta San Jose International Airport
KSJC : now visible

Airfield :











YOU CAN JOIN US ON...

 
LOGIN :

Register | Disclaimer

   EN    FR    IT 

 









Legend :    VFR   Marginal VFR   IFR   Intensive IFR   Very Intensive IFR
Visi :
Ceiling :
>= 8 km
>= 3000ft
5 to 8 km
1000 to 3000 ft
1500m to 5 km
500 to 1000 ft
800 to 1500m
200 to 500 ft
< 800m
< 200 ft
Symbols :   Thunderstorms  Fog  Heavy snow  Heavy precipitations  Wind > 20 kt







- Airport Elevation : 62 ft
- IATA code : SJC


KSJC - Norman Y. Mineta San Jose International

CURRENT METAR :
  • 251453Z 12005KT 7SM FEW001 FEW080 16/13 A2986 RMK AO2 SLP110 T01560133 53009

EXPIRED METARs :
  • 251353Z 17004KT 6SM BR FEW030 FEW080 14/13 A2984 RMK AO2 SLP104 T01440128
  • 251253Z 16007KT 9SM FEW030 FEW080 14/13 A2983 RMK AO2 SLP102 T01390128

TAF KSJC
Valid from the 25 at 12:00 until the 26 at 12:00 UTC


251122Z 2512/2612 15007KT P6SM SCT015
TEMPO 2512/2515 BKN015
FM251600 VRB04KT P6SM FEW015 FEW200
FM252000 31011KT P6SM SCT200
FM260500 29007KT P6SM SCT200
KZOA FIR / North America



MET'MAP, your aeronautical weather chart ! - Copyright ORBIFLY December 2007 - Disclaimer

ORBIFLY MET'MAP TEAM :

Programming & Development : Alexandra Zaïnal
Concept & Development : Baudouin d'Aumeries
Co-Development & Prog : Marc-Olivier Méhu
Technical & hardware support : Manuel Goepfert

Contact : metmap@orbifly.com




SOURCES & CREDITS :

   NOAA       Earth
Advisory